sensor_id;sensor_type;location;lat;lon;timestamp;P1;durP1;ratioP1;P2;durP2;ratioP2
10150;SDS011;5116;52.318;4.644;2022-09-01T00:01:12;0.80;;;0.80;;
10150;SDS011;5116;52.318;4.644;2022-09-01T00:03:47;1.43;;;1.00;;
10150;SDS011;5116;52.318;4.644;2022-09-01T00:06:14;0.93;;;0.90;;
10150;SDS011;5116;52.318;4.644;2022-09-01T00:08:48;0.70;;;0.70;;
10150;SDS011;5116;52.318;4.644;2022-09-01T00:11:15;0.60;;;0.60;;
10150;SDS011;5116;52.318;4.644;2022-09-01T00:13:43;1.00;;;0.90;;
10150;SDS011;5116;52.318;4.644;2022-09-01T00:16:10;1.03;;;0.97;;
10150;SDS011;5116;52.318;4.644;2022-09-01T00:18:40;0.60;;;0.60;;
10150;SDS011;5116;52.318;4.644;2022-09-01T00:21:08;0.70;;;0.70;;
10150;SDS011;5116;52.318;4.644;2022-09-01T00:23:36;0.80;;;0.80;;
10150;SDS011;5116;52.318;4.644;2022-09-01T00:26:03;0.80;;;0.80;;
10150;SDS011;5116;52.318;4.644;2022-09-01T00:28:31;0.83;;;0.83;;
10150;SDS011;5116;52.318;4.644;2022-09-01T00:30:59;1.33;;;0.90;;
10150;SDS011;5116;52.318;4.644;2022-09-01T00:33:27;0.83;;;0.83;;
10150;SDS011;5116;52.318;4.644;2022-09-01T00:35:54;0.80;;;0.80;;
10150;SDS011;5116;52.318;4.644;2022-09-01T00:38:22;1.43;;;0.80;;
10150;SDS011;5116;52.318;4.644;2022-09-01T00:40:49;0.93;;;0.93;;
10150;SDS011;5116;52.318;4.644;2022-09-01T00:43:23;1.27;;;1.17;;
10150;SDS011;5116;52.318;4.644;2022-09-01T00:46:02;0.90;;;0.90;;
10150;SDS011;5116;52.318;4.644;2022-09-01T00:48:30;0.70;;;0.70;;
10150;SDS011;5116;52.318;4.644;2022-09-01T00:50:58;0.80;;;0.80;;
10150;SDS011;5116;52.318;4.644;2022-09-01T00:53:26;0.83;;;0.80;;
10150;SDS011;5116;52.318;4.644;2022-09-01T00:55:53;0.80;;;0.80;;
10150;SDS011;5116;52.318;4.644;2022-09-01T00:58:21;0.87;;;0.87;;
10150;SDS011;5116;52.318;4.644;2022-09-01T01:00:49;1.20;;;1.00;;
10150;SDS011;5116;52.318;4.644;2022-09-01T01:03:18;0.80;;;0.80;;
10150;SDS011;5116;52.318;4.644;2022-09-01T01:05:47;0.90;;;0.90;;
10150;SDS011;5116;52.318;4.644;2022-09-01T01:08:21;0.80;;;0.80;;
10150;SDS011;5116;52.318;4.644;2022-09-01T01:11:00;0.80;;;0.80;;
10150;SDS011;5116;52.318;4.644;2022-09-01T01:13:35;0.70;;;0.70;;
10150;SDS011;5116;52.318;4.644;2022-09-01T01:16:14;1.17;;;0.90;;
10150;SDS011;5116;52.318;4.644;2022-09-01T01:18:42;1.50;;;1.00;;
10150;SDS011;5116;52.318;4.644;2022-09-01T01:21:13;1.17;;;0.93;;
10150;SDS011;5116;52.318;4.644;2022-09-01T01:24:01;0.80;;;0.80;;
10150;SDS011;5116;52.318;4.644;2022-09-01T01:26:32;0.80;;;0.80;;
10150;SDS011;5116;52.318;4.644;2022-09-01T01:29:00;0.60;;;0.60;;
10150;SDS011;5116;52.318;4.644;2022-09-01T01:31:28;0.60;;;0.60;;
10150;SDS011;5116;52.318;4.644;2022-09-01T01:33:57;0.93;;;0.90;;
10150;SDS011;5116;52.318;4.644;2022-09-01T01:36:29;0.70;;;0.70;;
10150;SDS011;5116;52.318;4.644;2022-09-01T01:39:08;0.90;;;0.90;;
10150;SDS011;5116;52.318;4.644;2022-09-01T01:41:36;0.80;;;0.80;;
10150;SDS011;5116;52.318;4.644;2022-09-01T01:44:08;0.80;;;0.80;;
10150;SDS011;5116;52.318;4.644;2022-09-01T01:46:39;0.93;;;0.93;;
10150;SDS011;5116;52.318;4.644;2022-09-01T01:49:09;0.87;;;0.87;;
10150;SDS011;5116;52.318;4.644;2022-09-01T01:51:39;1.30;;;1.20;;
10150;SDS011;5116;52.318;4.644;2022-09-01T01:54:07;0.80;;;0.80;;
10150;SDS011;5116;52.318;4.644;2022-09-01T01:56:34;1.00;;;1.00;;
10150;SDS011;5116;52.318;4.644;2022-09-01T01:59:05;0.93;;;0.93;;
10150;SDS011;5116;52.318;4.644;2022-09-01T02:01:34;0.93;;;0.87;;
10150;SDS011;5116;52.318;4.644;2022-09-01T02:04:02;1.40;;;1.10;;
10150;SDS011;5116;52.318;4.644;2022-09-01T02:06:32;1.13;;;0.80;;
10150;SDS011;5116;52.318;4.644;2022-09-01T02:09:01;1.20;;;1.10;;
10150;SDS011;5116;52.318;4.644;2022-09-01T02:11:29;0.93;;;0.93;;
10150;SDS011;5116;52.318;4.644;2022-09-01T02:13:59;0.90;;;0.90;;
10150;SDS011;5116;52.318;4.644;2022-09-01T02:16:27;1.00;;;1.00;;
10150;SDS011;5116;52.318;4.644;2022-09-01T02:18:56;1.20;;;1.10;;
10150;SDS011;5116;52.318;4.644;2022-09-01T02:21:24;1.10;;;1.00;;
10150;SDS011;5116;52.318;4.644;2022-09-01T02:23:54;0.83;;;0.80;;
10150;SDS011;5116;52.318;4.644;2022-09-01T02:26:32;0.80;;;0.80;;
10150;SDS011;5116;52.318;4.644;2022-09-01T02:29:01;1.03;;;0.97;;
10150;SDS011;5116;52.318;4.644;2022-09-01T02:31:31;1.10;;;1.00;;
10150;SDS011;5116;52.318;4.644;2022-09-01T02:34:01;1.03;;;1.03;;
10150;SDS011;5116;52.318;4.644;2022-09-01T02:36:29;0.90;;;0.90;;
10150;SDS011;5116;52.318;4.644;2022-09-01T02:39:03;0.97;;;0.90;;
10150;SDS011;5116;52.318;4.644;2022-09-01T02:41:33;1.13;;;0.90;;
10150;SDS011;5116;52.318;4.644;2022-09-01T02:44:02;0.90;;;0.90;;
10150;SDS011;5116;52.318;4.644;2022-09-01T02:46:38;0.70;;;0.70;;
10150;SDS011;5116;52.318;4.644;2022-09-01T02:49:08;1.00;;;0.80;;
10150;SDS011;5116;52.318;4.644;2022-09-01T02:51:41;0.80;;;0.80;;
10150;SDS011;5116;52.318;4.644;2022-09-01T02:54:10;0.90;;;0.90;;
10150;SDS011;5116;52.318;4.644;2022-09-01T02:56:39;1.70;;;0.90;;
10150;SDS011;5116;52.318;4.644;2022-09-01T02:59:06;0.80;;;0.80;;
10150;SDS011;5116;52.318;4.644;2022-09-01T03:01:38;1.90;;;1.17;;
10150;SDS011;5116;52.318;4.644;2022-09-01T03:04:06;1.23;;;1.13;;
10150;SDS011;5116;52.318;4.644;2022-09-01T03:06:36;1.17;;;0.97;;
10150;SDS011;5116;52.318;4.644;2022-09-01T03:09:05;2.03;;;1.20;;
10150;SDS011;5116;52.318;4.644;2022-09-01T03:11:38;1.43;;;1.27;;
10150;SDS011;5116;52.318;4.644;2022-09-01T03:14:05;2.50;;;1.20;;
10150;SDS011;5116;52.318;4.644;2022-09-01T03:16:35;0.90;;;0.90;;
10150;SDS011;5116;52.318;4.644;2022-09-01T03:19:06;1.07;;;1.00;;
10150;SDS011;5116;52.318;4.644;2022-09-01T03:21:35;1.00;;;1.00;;
10150;SDS011;5116;52.318;4.644;2022-09-01T03:24:15;1.47;;;1.10;;
10150;SDS011;5116;52.318;4.644;2022-09-01T03:26:44;0.87;;;0.87;;
10150;SDS011;5116;52.318;4.644;2022-09-01T03:29:16;1.20;;;1.10;;
10150;SDS011;5116;52.318;4.644;2022-09-01T03:31:43;0.87;;;0.87;;
10150;SDS011;5116;52.318;4.644;2022-09-01T03:34:11;1.27;;;1.23;;
10150;SDS011;5116;52.318;4.644;2022-09-01T03:36:44;1.13;;;1.03;;
10150;SDS011;5116;52.318;4.644;2022-09-01T03:39:24;1.17;;;1.17;;
10150;SDS011;5116;52.318;4.644;2022-09-01T03:41:52;1.40;;;1.30;;
10150;SDS011;5116;52.318;4.644;2022-09-01T03:44:20;1.37;;;1.27;;
10150;SDS011;5116;52.318;4.644;2022-09-01T03:46:48;0.90;;;0.90;;
10150;SDS011;5116;52.318;4.644;2022-09-01T03:49:17;1.33;;;1.20;;
10150;SDS011;5116;52.318;4.644;2022-09-01T03:51:54;1.37;;;1.20;;
10150;SDS011;5116;52.318;4.644;2022-09-01T03:54:22;1.00;;;1.00;;
10150;SDS011;5116;52.318;4.644;2022-09-01T03:56:54;0.80;;;0.80;;
10150;SDS011;5116;52.318;4.644;2022-09-01T03:59:22;1.07;;;0.97;;
10150;SDS011;5116;52.318;4.644;2022-09-01T04:01:51;1.03;;;1.03;;
10150;SDS011;5116;52.318;4.644;2022-09-01T04:04:19;1.23;;;1.13;;
10150;SDS011;5116;52.318;4.644;2022-09-01T04:06:47;1.30;;;1.10;;
10150;SDS011;5116;52.318;4.644;2022-09-01T04:09:15;0.90;;;0.90;;
10150;SDS011;5116;52.318;4.644;2022-09-01T04:11:43;1.30;;;1.20;;
10150;SDS011;5116;52.318;4.644;2022-09-01T04:14:14;1.00;;;1.00;;
10150;SDS011;5116;52.318;4.644;2022-09-01T04:16:43;1.00;;;1.00;;
10150;SDS011;5116;52.318;4.644;2022-09-01T04:19:32;1.00;;;1.00;;
10150;SDS011;5116;52.318;4.644;2022-09-01T04:22:01;0.90;;;0.90;;
10150;SDS011;5116;52.318;4.644;2022-09-01T04:24:37;0.90;;;0.90;;
10150;SDS011;5116;52.318;4.644;2022-09-01T04:27:10;0.80;;;0.80;;
10150;SDS011;5116;52.318;4.644;2022-09-01T04:29:40;0.90;;;0.90;;
10150;SDS011;5116;52.318;4.644;2022-09-01T04:32:08;0.90;;;0.90;;
10150;SDS011;5116;52.318;4.644;2022-09-01T04:34:40;1.00;;;1.00;;
10150;SDS011;5116;52.318;4.644;2022-09-01T04:37:12;1.07;;;1.07;;
10150;SDS011;5116;52.318;4.644;2022-09-01T04:39:41;1.00;;;1.00;;
10150;SDS011;5116;52.318;4.644;2022-09-01T04:42:18;1.00;;;1.00;;
10150;SDS011;5116;52.318;4.644;2022-09-01T04:44:47;1.03;;;1.00;;
10150;SDS011;5116;52.318;4.644;2022-09-01T04:47:14;1.20;;;1.10;;
10150;SDS011;5116;52.318;4.644;2022-09-01T04:49:47;0.97;;;0.97;;
10150;SDS011;5116;52.318;4.644;2022-09-01T04:52:14;0.97;;;0.90;;
10150;SDS011;5116;52.318;4.644;2022-09-01T04:54:41;1.33;;;1.23;;
10150;SDS011;5116;52.318;4.644;2022-09-01T04:57:10;1.50;;;1.30;;
10150;SDS011;5116;52.318;4.644;2022-09-01T04:59:37;1.73;;;1.20;;
10150;SDS011;5116;52.318;4.644;2022-09-01T05:02:06;1.00;;;1.00;;
10150;SDS011;5116;52.318;4.644;2022-09-01T05:04:35;1.23;;;1.20;;
10150;SDS011;5116;52.318;4.644;2022-09-01T05:07:03;1.13;;;1.10;;
10150;SDS011;5116;52.318;4.644;2022-09-01T05:09:35;1.00;;;1.00;;
10150;SDS011;5116;52.318;4.644;2022-09-01T05:12:21;1.10;;;1.10;;
10150;SDS011;5116;52.318;4.644;2022-09-01T05:14:50;1.00;;;1.00;;
10150;SDS011;5116;52.318;4.644;2022-09-01T05:17:19;1.30;;;1.20;;
10150;SDS011;5116;52.318;4.644;2022-09-01T05:19:48;1.40;;;1.30;;
10150;SDS011;5116;52.318;4.644;2022-09-01T05:22:17;1.10;;;1.10;;
10150;SDS011;5116;52.318;4.644;2022-09-01T05:24:57;1.20;;;1.10;;
10150;SDS011;5116;52.318;4.644;2022-09-01T05:27:41;1.17;;;1.10;;
10150;SDS011;5116;52.318;4.644;2022-09-01T05:30:17;1.20;;;1.10;;
10150;SDS011;5116;52.318;4.644;2022-09-01T05:32:44;1.10;;;1.00;;
10150;SDS011;5116;52.318;4.644;2022-09-01T05:35:15;1.87;;;1.33;;
10150;SDS011;5116;52.318;4.644;2022-09-01T05:37:43;1.90;;;1.00;;
10150;SDS011;5116;52.318;4.644;2022-09-01T05:40:11;1.30;;;1.20;;
10150;SDS011;5116;52.318;4.644;2022-09-01T05:42:43;1.37;;;1.27;;
10150;SDS011;5116;52.318;4.644;2022-09-01T05:45:11;0.80;;;0.80;;
10150;SDS011;5116;52.318;4.644;2022-09-01T05:47:39;1.07;;;1.03;;
10150;SDS011;5116;52.318;4.644;2022-09-01T05:50:08;1.00;;;1.00;;
10150;SDS011;5116;52.318;4.644;2022-09-01T05:52:40;1.03;;;1.03;;
10150;SDS011;5116;52.318;4.644;2022-09-01T05:55:10;1.00;;;1.00;;
10150;SDS011;5116;52.318;4.644;2022-09-01T05:57:40;1.10;;;1.07;;
10150;SDS011;5116;52.318;4.644;2022-09-01T06:00:07;1.10;;;1.10;;
10150;SDS011;5116;52.318;4.644;2022-09-01T06:02:39;1.10;;;1.00;;
10150;SDS011;5116;52.318;4.644;2022-09-01T06:05:13;0.90;;;0.90;;
10150;SDS011;5116;52.318;4.644;2022-09-01T06:07:41;1.40;;;1.30;;
10150;SDS011;5116;52.318;4.644;2022-09-01T06:10:10;1.60;;;1.50;;
10150;SDS011;5116;52.318;4.644;2022-09-01T06:12:40;1.20;;;1.10;;
10150;SDS011;5116;52.318;4.644;2022-09-01T06:15:08;1.20;;;1.10;;
10150;SDS011;5116;52.318;4.644;2022-09-01T06:17:45;1.40;;;1.30;;
10150;SDS011;5116;52.318;4.644;2022-09-01T06:20:13;1.07;;;1.07;;
10150;SDS011;5116;52.318;4.644;2022-09-01T06:22:43;2.13;;;1.10;;
10150;SDS011;5116;52.318;4.644;2022-09-01T06:25:11;1.30;;;1.20;;
10150;SDS011;5116;52.318;4.644;2022-09-01T06:27:42;1.10;;;1.10;;
10150;SDS011;5116;52.318;4.644;2022-09-01T06:30:11;1.73;;;1.33;;
10150;SDS011;5116;52.318;4.644;2022-09-01T06:32:58;1.33;;;1.23;;
10150;SDS011;5116;52.318;4.644;2022-09-01T06:35:28;1.10;;;1.10;;
10150;SDS011;5116;52.318;4.644;2022-09-01T06:37:57;1.30;;;1.20;;
10150;SDS011;5116;52.318;4.644;2022-09-01T06:40:36;1.20;;;1.10;;
10150;SDS011;5116;52.318;4.644;2022-09-01T06:43:06;0.90;;;0.90;;
10150;SDS011;5116;52.318;4.644;2022-09-01T06:45:41;1.40;;;1.30;;
10150;SDS011;5116;52.318;4.644;2022-09-01T06:48:10;1.07;;;0.97;;
10150;SDS011;5116;52.318;4.644;2022-09-01T06:50:42;1.30;;;1.20;;
10150;SDS011;5116;52.318;4.644;2022-09-01T06:53:31;1.20;;;1.10;;
10150;SDS011;5116;52.318;4.644;2022-09-01T06:56:15;1.10;;;1.10;;
10150;SDS011;5116;52.318;4.644;2022-09-01T06:58:44;1.00;;;1.00;;
10150;SDS011;5116;52.318;4.644;2022-09-01T07:01:15;1.00;;;1.00;;
10150;SDS011;5116;52.318;4.644;2022-09-01T07:03:44;1.90;;;1.40;;
10150;SDS011;5116;52.318;4.644;2022-09-01T07:06:21;1.50;;;1.40;;
10150;SDS011;5116;52.318;4.644;2022-09-01T07:09:15;1.30;;;1.20;;
10150;SDS011;5116;52.318;4.644;2022-09-01T07:12:05;1.30;;;1.20;;
10150;SDS011;5116;52.318;4.644;2022-09-01T07:14:50;1.40;;;1.30;;
10150;SDS011;5116;52.318;4.644;2022-09-01T07:17:39;2.10;;;1.20;;
10150;SDS011;5116;52.318;4.644;2022-09-01T07:20:08;1.30;;;1.20;;
10150;SDS011;5116;52.318;4.644;2022-09-01T07:22:54;1.37;;;1.27;;
10150;SDS011;5116;52.318;4.644;2022-09-01T07:25:43;1.57;;;1.37;;
10150;SDS011;5116;52.318;4.644;2022-09-01T07:28:39;1.20;;;1.10;;
10150;SDS011;5116;52.318;4.644;2022-09-01T07:31:06;1.20;;;1.10;;
10150;SDS011;5116;52.318;4.644;2022-09-01T07:33:56;1.30;;;1.20;;
10150;SDS011;5116;52.318;4.644;2022-09-01T07:36:45;1.37;;;1.30;;
10150;SDS011;5116;52.318;4.644;2022-09-01T07:39:35;1.30;;;1.20;;
10150;SDS011;5116;52.318;4.644;2022-09-01T07:42:53;0.90;;;0.90;;
10150;SDS011;5116;52.318;4.644;2022-09-01T07:45:35;1.00;;;1.00;;
10150;SDS011;5116;52.318;4.644;2022-09-01T07:48:17;1.30;;;1.20;;
10150;SDS011;5116;52.318;4.644;2022-09-01T07:51:10;1.10;;;1.10;;
10150;SDS011;5116;52.318;4.644;2022-09-01T07:53:58;1.27;;;1.17;;
10150;SDS011;5116;52.318;4.644;2022-09-01T07:56:28;1.27;;;1.17;;
10150;SDS011;5116;52.318;4.644;2022-09-01T07:59:05;1.30;;;1.20;;
10150;SDS011;5116;52.318;4.644;2022-09-01T08:01:48;1.00;;;1.00;;
10150;SDS011;5116;52.318;4.644;2022-09-01T08:04:16;1.20;;;1.10;;
10150;SDS011;5116;52.318;4.644;2022-09-01T08:06:48;1.00;;;1.00;;
10150;SDS011;5116;52.318;4.644;2022-09-01T08:09:16;1.10;;;1.10;;
10150;SDS011;5116;52.318;4.644;2022-09-01T08:12:06;1.13;;;1.07;;
10150;SDS011;5116;52.318;4.644;2022-09-01T08:14:39;1.20;;;1.07;;
10150;SDS011;5116;52.318;4.644;2022-09-01T08:17:07;1.00;;;1.00;;
10150;SDS011;5116;52.318;4.644;2022-09-01T08:19:57;1.67;;;1.10;;
10150;SDS011;5116;52.318;4.644;2022-09-01T08:22:43;1.30;;;1.20;;
10150;SDS011;5116;52.318;4.644;2022-09-01T08:25:17;1.00;;;1.00;;
10150;SDS011;5116;52.318;4.644;2022-09-01T08:27:51;1.20;;;1.10;;
10150;SDS011;5116;52.318;4.644;2022-09-01T08:30:25;1.03;;;1.03;;
10150;SDS011;5116;52.318;4.644;2022-09-01T08:32:53;1.10;;;1.10;;
10150;SDS011;5116;52.318;4.644;2022-09-01T08:35:21;0.90;;;0.90;;
10150;SDS011;5116;52.318;4.644;2022-09-01T08:37:50;1.27;;;1.17;;
10150;SDS011;5116;52.318;4.644;2022-09-01T08:40:18;1.00;;;1.00;;
10150;SDS011;5116;52.318;4.644;2022-09-01T08:45:41;1.13;;;1.13;;
10150;SDS011;5116;52.318;4.644;2022-09-01T08:48:15;1.20;;;1.20;;
10150;SDS011;5116;52.318;4.644;2022-09-01T08:51:11;1.10;;;1.10;;
10150;SDS011;5116;52.318;4.644;2022-09-01T08:54:09;2.47;;;1.10;;
10150;SDS011;5116;52.318;4.644;2022-09-01T08:56:37;1.10;;;1.10;;
10150;SDS011;5116;52.318;4.644;2022-09-01T08:59:05;1.20;;;1.10;;
10150;SDS011;5116;52.318;4.644;2022-09-01T09:02:20;1.20;;;1.10;;
10150;SDS011;5116;52.318;4.644;2022-09-01T09:10:13;1.17;;;1.10;;
10150;SDS011;5116;52.318;4.644;2022-09-01T09:17:44;1.00;;;1.00;;
10150;SDS011;5116;52.318;4.644;2022-09-01T09:20:12;1.00;;;1.00;;
10150;SDS011;5116;52.318;4.644;2022-09-01T09:22:40;1.10;;;1.10;;
10150;SDS011;5116;52.318;4.644;2022-09-01T09:25:15;0.90;;;0.90;;
10150;SDS011;5116;52.318;4.644;2022-09-01T09:27:46;1.10;;;1.00;;
10150;SDS011;5116;52.318;4.644;2022-09-01T09:30:20;1.30;;;1.20;;
10150;SDS011;5116;52.318;4.644;2022-09-01T09:35:45;1.00;;;1.00;;
10150;SDS011;5116;52.318;4.644;2022-09-01T09:38:15;1.00;;;1.00;;
10150;SDS011;5116;52.318;4.644;2022-09-01T09:43:48;1.13;;;1.10;;
10150;SDS011;5116;52.318;4.644;2022-09-01T09:46:21;1.10;;;1.10;;
10150;SDS011;5116;52.318;4.644;2022-09-01T09:51:38;1.10;;;1.10;;
10150;SDS011;5116;52.318;4.644;2022-09-01T09:54:10;1.07;;;1.07;;
10150;SDS011;5116;52.318;4.644;2022-09-01T09:56:39;1.00;;;1.00;;
10150;SDS011;5116;52.318;4.644;2022-09-01T10:04:56;1.10;;;1.00;;
10150;SDS011;5116;52.318;4.644;2022-09-01T10:07:32;1.00;;;1.00;;
10150;SDS011;5116;52.318;4.644;2022-09-01T10:10:02;1.00;;;1.00;;
10150;SDS011;5116;52.318;4.644;2022-09-01T10:12:30;1.00;;;1.00;;
10150;SDS011;5116;52.318;4.644;2022-09-01T10:15:04;0.90;;;0.90;;
10150;SDS011;5116;52.318;4.644;2022-09-01T10:17:41;0.97;;;0.97;;
10150;SDS011;5116;52.318;4.644;2022-09-01T10:20:15;1.00;;;1.00;;
10150;SDS011;5116;52.318;4.644;2022-09-01T10:22:43;1.27;;;1.10;;
10150;SDS011;5116;52.318;4.644;2022-09-01T10:25:19;1.33;;;1.23;;
10150;SDS011;5116;52.318;4.644;2022-09-01T10:27:54;0.90;;;0.90;;
10150;SDS011;5116;52.318;4.644;2022-09-01T10:30:24;1.17;;;1.07;;
10150;SDS011;5116;52.318;4.644;2022-09-01T10:32:53;0.97;;;0.97;;
10150;SDS011;5116;52.318;4.644;2022-09-01T10:35:29;0.93;;;0.93;;
10150;SDS011;5116;52.318;4.644;2022-09-01T10:37:58;1.20;;;1.00;;
10150;SDS011;5116;52.318;4.644;2022-09-01T10:43:21;1.17;;;1.10;;
10150;SDS011;5116;52.318;4.644;2022-09-01T10:45:44;1.30;;;1.20;;
10150;SDS011;5116;52.318;4.644;2022-09-01T10:56:20;1.00;;;1.00;;
10150;SDS011;5116;52.318;4.644;2022-09-01T11:13:09;0.83;;;0.83;;
10150;SDS011;5116;52.318;4.644;2022-09-01T11:15:47;1.07;;;0.97;;
10150;SDS011;5116;52.318;4.644;2022-09-01T11:18:16;0.97;;;0.97;;
10150;SDS011;5116;52.318;4.644;2022-09-01T11:20:49;1.07;;;0.97;;
10150;SDS011;5116;52.318;4.644;2022-09-01T11:25:54;1.00;;;1.00;;
10150;SDS011;5116;52.318;4.644;2022-09-01T11:28:42;0.80;;;0.80;;
10150;SDS011;5116;52.318;4.644;2022-09-01T11:31:12;1.10;;;1.10;;
10150;SDS011;5116;52.318;4.644;2022-09-01T11:52:20;0.90;;;0.90;;
10150;SDS011;5116;52.318;4.644;2022-09-01T11:54:48;0.73;;;0.73;;
10150;SDS011;5116;52.318;4.644;2022-09-01T11:57:22;0.63;;;0.63;;
10150;SDS011;5116;52.318;4.644;2022-09-01T11:59:50;0.90;;;0.90;;
10150;SDS011;5116;52.318;4.644;2022-09-01T12:02:28;0.67;;;0.67;;
10150;SDS011;5116;52.318;4.644;2022-09-01T12:05:03;0.70;;;0.70;;
10150;SDS011;5116;52.318;4.644;2022-09-01T12:07:49;0.60;;;0.60;;
10150;SDS011;5116;52.318;4.644;2022-09-01T12:10:23;0.90;;;0.90;;
10150;SDS011;5116;52.318;4.644;2022-09-01T12:15:28;0.60;;;0.60;;
10150;SDS011;5116;52.318;4.644;2022-09-01T12:20:56;1.33;;;0.77;;
10150;SDS011;5116;52.318;4.644;2022-09-01T12:25:58;0.80;;;0.80;;
10150;SDS011;5116;52.318;4.644;2022-09-01T12:28:27;0.80;;;0.80;;
10150;SDS011;5116;52.318;4.644;2022-09-01T12:30:59;0.83;;;0.83;;
10150;SDS011;5116;52.318;4.644;2022-09-01T12:33:33;0.70;;;0.70;;
10150;SDS011;5116;52.318;4.644;2022-09-01T12:38:40;0.73;;;0.73;;
10150;SDS011;5116;52.318;4.644;2022-09-01T12:43:54;0.70;;;0.70;;
10150;SDS011;5116;52.318;4.644;2022-09-01T12:46:40;0.83;;;0.83;;
10150;SDS011;5116;52.318;4.644;2022-09-01T12:49:15;0.67;;;0.67;;
10150;SDS011;5116;52.318;4.644;2022-09-01T12:51:43;0.90;;;0.80;;
10150;SDS011;5116;52.318;4.644;2022-09-01T12:54:13;0.90;;;0.90;;
10150;SDS011;5116;52.318;4.644;2022-09-01T12:56:45;0.73;;;0.73;;
10150;SDS011;5116;52.318;4.644;2022-09-01T12:59:14;0.90;;;0.90;;
10150;SDS011;5116;52.318;4.644;2022-09-01T13:07:44;0.90;;;0.90;;
10150;SDS011;5116;52.318;4.644;2022-09-01T13:10:12;0.80;;;0.80;;
10150;SDS011;5116;52.318;4.644;2022-09-01T13:12:43;0.90;;;0.90;;
10150;SDS011;5116;52.318;4.644;2022-09-01T13:15:11;0.80;;;0.80;;
10150;SDS011;5116;52.318;4.644;2022-09-01T13:17:39;0.80;;;0.80;;
10150;SDS011;5116;52.318;4.644;2022-09-01T13:20:07;1.00;;;1.00;;
10150;SDS011;5116;52.318;4.644;2022-09-01T13:22:34;0.80;;;0.80;;
10150;SDS011;5116;52.318;4.644;2022-09-01T13:25:02;0.70;;;0.70;;
10150;SDS011;5116;52.318;4.644;2022-09-01T13:27:30;1.00;;;1.00;;
10150;SDS011;5116;52.318;4.644;2022-09-01T13:29:57;0.90;;;0.90;;
10150;SDS011;5116;52.318;4.644;2022-09-01T13:32:25;1.93;;;0.70;;
10150;SDS011;5116;52.318;4.644;2022-09-01T13:34:52;0.80;;;0.80;;
10150;SDS011;5116;52.318;4.644;2022-09-01T13:37:20;0.93;;;0.93;;
10150;SDS011;5116;52.318;4.644;2022-09-01T13:39:48;0.90;;;0.90;;
10150;SDS011;5116;52.318;4.644;2022-09-01T13:42:16;1.10;;;0.90;;
10150;SDS011;5116;52.318;4.644;2022-09-01T13:44:43;0.90;;;0.90;;
10150;SDS011;5116;52.318;4.644;2022-09-01T13:47:16;0.93;;;0.90;;
10150;SDS011;5116;52.318;4.644;2022-09-01T13:49:59;0.70;;;0.70;;
10150;SDS011;5116;52.318;4.644;2022-09-01T13:52:37;0.70;;;0.70;;
10150;SDS011;5116;52.318;4.644;2022-09-01T13:55:05;0.70;;;0.70;;
10150;SDS011;5116;52.318;4.644;2022-09-01T13:57:33;0.60;;;0.60;;
10150;SDS011;5116;52.318;4.644;2022-09-01T14:00:06;0.80;;;0.80;;
10150;SDS011;5116;52.318;4.644;2022-09-01T14:02:40;0.70;;;0.70;;
10150;SDS011;5116;52.318;4.644;2022-09-01T14:05:08;0.80;;;0.80;;
10150;SDS011;5116;52.318;4.644;2022-09-01T14:07:36;0.70;;;0.70;;
10150;SDS011;5116;52.318;4.644;2022-09-01T14:10:03;0.70;;;0.70;;
10150;SDS011;5116;52.318;4.644;2022-09-01T14:12:32;0.80;;;0.80;;
10150;SDS011;5116;52.318;4.644;2022-09-01T14:15:00;0.80;;;0.80;;
10150;SDS011;5116;52.318;4.644;2022-09-01T14:17:48;0.70;;;0.70;;
10150;SDS011;5116;52.318;4.644;2022-09-01T14:20:17;0.90;;;0.80;;
10150;SDS011;5116;52.318;4.644;2022-09-01T14:22:45;0.67;;;0.67;;
10150;SDS011;5116;52.318;4.644;2022-09-01T14:25:12;0.80;;;0.80;;
10150;SDS011;5116;52.318;4.644;2022-09-01T14:27:40;0.80;;;0.80;;
10150;SDS011;5116;52.318;4.644;2022-09-01T14:30:11;0.80;;;0.80;;
10150;SDS011;5116;52.318;4.644;2022-09-01T14:32:39;0.80;;;0.80;;
10150;SDS011;5116;52.318;4.644;2022-09-01T14:35:07;0.80;;;0.80;;
10150;SDS011;5116;52.318;4.644;2022-09-01T14:37:37;0.90;;;0.90;;
10150;SDS011;5116;52.318;4.644;2022-09-01T14:40:06;0.87;;;0.87;;
10150;SDS011;5116;52.318;4.644;2022-09-01T14:42:35;0.80;;;0.80;;
10150;SDS011;5116;52.318;4.644;2022-09-01T14:45:05;0.80;;;0.80;;
10150;SDS011;5116;52.318;4.644;2022-09-01T14:47:33;0.90;;;0.90;;
10150;SDS011;5116;52.318;4.644;2022-09-01T14:50:00;0.70;;;0.70;;
10150;SDS011;5116;52.318;4.644;2022-09-01T14:52:28;0.80;;;0.80;;
10150;SDS011;5116;52.318;4.644;2022-09-01T14:54:56;0.80;;;0.80;;
10150;SDS011;5116;52.318;4.644;2022-09-01T14:57:24;0.80;;;0.80;;
10150;SDS011;5116;52.318;4.644;2022-09-01T15:00:04;0.80;;;0.80;;
10150;SDS011;5116;52.318;4.644;2022-09-01T15:02:35;0.90;;;0.90;;
10150;SDS011;5116;52.318;4.644;2022-09-01T15:05:03;0.80;;;0.80;;
10150;SDS011;5116;52.318;4.644;2022-09-01T15:07:30;0.90;;;0.90;;
10150;SDS011;5116;52.318;4.644;2022-09-01T15:09:58;0.80;;;0.80;;
10150;SDS011;5116;52.318;4.644;2022-09-01T15:12:25;0.80;;;0.80;;
10150;SDS011;5116;52.318;4.644;2022-09-01T15:14:56;0.80;;;0.80;;
10150;SDS011;5116;52.318;4.644;2022-09-01T15:17:24;0.90;;;0.90;;
10150;SDS011;5116;52.318;4.644;2022-09-01T15:19:52;1.00;;;1.00;;
10150;SDS011;5116;52.318;4.644;2022-09-01T15:22:19;1.00;;;0.90;;
10150;SDS011;5116;52.318;4.644;2022-09-01T15:24:46;0.80;;;0.80;;
10150;SDS011;5116;52.318;4.644;2022-09-01T15:27:14;0.63;;;0.63;;
10150;SDS011;5116;52.318;4.644;2022-09-01T15:29:41;0.77;;;0.77;;
10150;SDS011;5116;52.318;4.644;2022-09-01T15:32:14;0.70;;;0.70;;
10150;SDS011;5116;52.318;4.644;2022-09-01T15:34:52;0.80;;;0.80;;
10150;SDS011;5116;52.318;4.644;2022-09-01T15:37:20;0.80;;;0.80;;
10150;SDS011;5116;52.318;4.644;2022-09-01T15:39:47;0.93;;;0.90;;
10150;SDS011;5116;52.318;4.644;2022-09-01T15:42:15;0.80;;;0.80;;
10150;SDS011;5116;52.318;4.644;2022-09-01T15:44:43;0.97;;;0.90;;
10150;SDS011;5116;52.318;4.644;2022-09-01T15:47:10;0.90;;;0.90;;
10150;SDS011;5116;52.318;4.644;2022-09-01T15:49:38;0.90;;;0.90;;
10150;SDS011;5116;52.318;4.644;2022-09-01T15:52:06;0.77;;;0.77;;
10150;SDS011;5116;52.318;4.644;2022-09-01T15:54:37;1.77;;;1.00;;
10150;SDS011;5116;52.318;4.644;2022-09-01T15:57:04;0.80;;;0.80;;
10150;SDS011;5116;52.318;4.644;2022-09-01T15:59:34;0.70;;;0.70;;
10150;SDS011;5116;52.318;4.644;2022-09-01T16:02:05;1.03;;;1.00;;
10150;SDS011;5116;52.318;4.644;2022-09-01T16:04:33;0.80;;;0.80;;
10150;SDS011;5116;52.318;4.644;2022-09-01T16:07:00;0.90;;;0.90;;
10150;SDS011;5116;52.318;4.644;2022-09-01T16:09:28;1.43;;;0.70;;
10150;SDS011;5116;52.318;4.644;2022-09-01T16:11:55;1.10;;;1.10;;
10150;SDS011;5116;52.318;4.644;2022-09-01T16:14:23;0.80;;;0.80;;
10150;SDS011;5116;52.318;4.644;2022-09-01T16:16:55;1.00;;;1.00;;
10150;SDS011;5116;52.318;4.644;2022-09-01T16:19:31;0.80;;;0.80;;
10150;SDS011;5116;52.318;4.644;2022-09-01T16:24:46;0.80;;;0.80;;
10150;SDS011;5116;52.318;4.644;2022-09-01T16:27:15;0.90;;;0.90;;
10150;SDS011;5116;52.318;4.644;2022-09-01T16:32:10;1.27;;;1.17;;
10150;SDS011;5116;52.318;4.644;2022-09-01T16:34:40;0.80;;;0.80;;
10150;SDS011;5116;52.318;4.644;2022-09-01T16:39:42;0.80;;;0.80;;
10150;SDS011;5116;52.318;4.644;2022-09-01T16:42:26;0.80;;;0.80;;
10150;SDS011;5116;52.318;4.644;2022-09-01T16:50:02;0.90;;;0.90;;
10150;SDS011;5116;52.318;4.644;2022-09-01T17:00:50;0.70;;;0.70;;
10150;SDS011;5116;52.318;4.644;2022-09-01T17:03:26;0.70;;;0.70;;
10150;SDS011;5116;52.318;4.644;2022-09-01T17:06:11;0.87;;;0.80;;
10150;SDS011;5116;52.318;4.644;2022-09-01T17:08:50;0.70;;;0.70;;
10150;SDS011;5116;52.318;4.644;2022-09-01T17:11:22;0.90;;;0.90;;
10150;SDS011;5116;52.318;4.644;2022-09-01T17:13:51;0.80;;;0.80;;
10150;SDS011;5116;52.318;4.644;2022-09-01T17:16:37;0.80;;;0.80;;
10150;SDS011;5116;52.318;4.644;2022-09-01T17:19:08;0.80;;;0.80;;
10150;SDS011;5116;52.318;4.644;2022-09-01T17:21:39;0.70;;;0.70;;
10150;SDS011;5116;52.318;4.644;2022-09-01T17:26:40;0.70;;;0.70;;